Time;durP1;ratioP1;P1;durP2;ratioP2;P2;SDS_P1;SDS_P2;PMS_P1;PMS_P2;Temp;Humidity;BMP_temperature;BMP_pressure;BME280_temperature;BME280_humidity;BME280_pressure;Samples;Min_cycle;Max_cycle;Signal;HPM_P1;HPM_P2
2021/10/11 00:01:08;;;;;;;3.00;1.30;;;14.50;98.70;;;;;;5156009;27;20474;-40
2021/10/11 02:01:56;;;;;;;1.27;1.03;;;11.10;99.90;;;;;;4838122;23;20511;-35
2021/10/11 02:04:27;;;;;;;3.93;1.87;;;11.20;99.90;;;;;;4987594;28;20844;-38
2021/10/11 02:06:58;;;;;;;1.63;1.43;;;11.20;99.90;;;;;;4984777;28;20544;-38
2021/10/11 02:09:30;;;;;;;2.07;1.67;;;11.10;99.90;;;;;;4984056;28;20527;-39
2021/10/11 02:12:00;;;;;;;3.17;2.13;;;11.20;99.90;;;;;;4976013;28;20516;-38
2021/10/11 02:14:31;;;;;;;2.37;1.60;;;11.10;99.90;;;;;;4964497;28;20531;-38
2021/10/11 02:17:04;;;;;;;1.83;1.50;;;11.10;99.90;;;;;;4965371;29;20917;-39
2021/10/11 02:19:35;;;;;;;2.17;2.00;;;11.00;99.90;;;;;;4993532;28;20476;-40
2021/10/11 02:22:06;;;;;;;2.03;1.83;;;10.90;99.90;;;;;;4994010;28;20490;-39
2021/10/11 02:24:37;;;;;;;2.27;1.90;;;10.80;99.90;;;;;;4992297;28;21124;-36
2021/10/11 02:27:08;;;;;;;2.80;2.20;;;10.70;99.90;;;;;;4984750;28;20637;-38
2021/10/11 02:29:39;;;;;;;3.13;2.37;;;10.70;99.90;;;;;;4983703;28;20487;-38
2021/10/11 02:32:12;;;;;;;4.57;2.80;;;10.60;99.90;;;;;;4985130;28;20495;-36
2021/10/11 02:34:43;;;;;;;3.47;3.17;;;10.60;99.90;;;;;;4983273;28;20471;-38
2021/10/11 02:37:13;;;;;;;3.67;3.33;;;10.60;99.90;;;;;;4984240;28;20487;-39
2021/10/11 02:39:44;;;;;;;3.30;2.97;;;10.50;99.90;;;;;;4984225;28;20447;-38
2021/10/11 02:42:15;;;;;;;5.30;3.57;;;10.50;99.90;;;;;;4984156;28;20436;-39
2021/10/11 02:44:46;;;;;;;5.33;3.70;;;10.50;99.90;;;;;;4983351;28;20559;-38
2021/10/11 02:47:19;;;;;;;7.55;4.45;;;10.50;99.90;;;;;;4980317;28;20559;-39
2021/10/11 02:49:50;;;;;;;3.53;3.23;;;10.50;99.90;;;;;;4989273;28;20289;-39
2021/10/11 02:52:21;;;;;;;5.55;3.75;;;10.50;99.90;;;;;;5002725;28;20953;-36
2021/10/11 02:54:52;;;;;;;2.80;2.60;;;10.40;99.90;;;;;;5000468;28;20263;-39
2021/10/11 02:57:22;;;;;;;4.27;3.97;;;10.20;99.90;;;;;;4984009;28;20209;-37
2021/10/11 02:59:53;;;;;;;3.72;3.33;;;10.20;99.90;;;;;;4983798;28;20495;-39
2021/10/11 03:02:27;;;;;;;4.10;3.17;;;10.20;99.90;;;;;;4994910;28;20231;-39
2021/10/11 03:04:58;;;;;;;3.47;3.17;;;10.10;99.90;;;;;;4990481;28;20240;-38
2021/10/11 03:07:28;;;;;;;3.33;3.03;;;10.00;99.90;;;;;;4964521;28;20467;-36
2021/10/11 03:10:00;;;;;;;5.03;3.25;;;10.00;99.90;;;;;;4970413;28;20265;-38
2021/10/11 03:12:31;;;;;;;3.67;3.38;;;9.90;99.90;;;;;;4980932;28;20213;-39
2021/10/11 03:15:01;;;;;;;3.20;2.90;;;9.90;99.90;;;;;;4986721;28;20279;-38
2021/10/11 03:17:34;;;;;;;4.07;3.70;;;9.90;99.90;;;;;;5002505;28;20338;-39
2021/10/11 03:20:06;;;;;;;4.00;3.60;;;9.80;99.90;;;;;;5002736;28;20212;-39
2021/10/11 03:22:37;;;;;;;3.97;3.40;;;9.70;99.90;;;;;;4985793;28;20189;-38
2021/10/11 03:25:09;;;;;;;3.95;3.45;;;9.50;99.90;;;;;;4983691;28;20256;-38
2021/10/11 03:27:40;;;;;;;4.50;4.10;;;9.50;99.90;;;;;;4991085;28;20215;-38
2021/10/11 03:30:12;;;;;;;4.25;3.85;;;9.40;99.90;;;;;;4986771;28;20266;-36
2021/10/11 03:32:44;;;;;;;11.40;4.70;;;9.30;99.90;;;;;;4982779;28;20236;-40
2021/10/11 03:35:15;;;;;;;4.80;4.40;;;9.20;99.90;;;;;;4983156;28;20240;-36
2021/10/11 03:37:46;;;;;;;5.80;4.50;;;9.20;99.90;;;;;;4986957;28;20264;-38
2021/10/11 03:40:17;;;;;;;4.88;4.43;;;9.30;99.90;;;;;;5003187;28;20198;-38
2021/10/11 03:42:48;;;;;;;7.78;4.97;;;9.30;99.90;;;;;;4995970;28;20246;-39
2021/10/11 03:45:19;;;;;;;7.18;5.20;;;9.30;99.90;;;;;;4984928;28;20200;-37
2021/10/11 03:47:52;;;;;;;5.22;4.82;;;9.20;99.90;;;;;;4988877;28;20208;-37
2021/10/11 03:50:23;;;;;;;8.15;5.15;;;9.10;99.90;;;;;;4995235;28;20228;-39
2021/10/11 03:52:53;;;;;;;4.93;4.53;;;9.00;99.90;;;;;;4987002;28;20279;-40
2021/10/11 03:55:24;;;;;;;4.65;4.28;;;8.90;99.90;;;;;;4990461;28;20237;-40
2021/10/11 03:57:55;;;;;;;5.40;4.88;;;9.00;99.90;;;;;;4986523;28;20298;-42
2021/10/11 04:00:27;;;;;;;7.10;5.25;;;8.90;99.90;;;;;;4987879;28;20212;-40
2021/10/11 04:03:02;;;;;;;6.68;5.97;;;8.80;99.90;;;;;;4997995;28;20299;-41
2021/10/11 04:05:33;;;;;;;7.18;6.47;;;8.70;99.90;;;;;;5001447;28;20214;-40
2021/10/11 04:08:09;;;;;;;8.10;6.80;;;8.80;99.90;;;;;;4990741;28;20188;-40
2021/10/11 04:10:47;;;;;;;7.88;7.07;;;8.90;99.90;;;;;;5004887;28;20262;-41
2021/10/11 04:13:20;;;;;;;9.05;7.20;;;8.80;99.90;;;;;;4999644;28;20231;-40
2021/10/11 04:15:51;;;;;;;9.98;8.00;;;8.80;99.90;;;;;;4986642;28;20212;-40
2021/10/11 04:18:24;;;;;;;11.40;8.15;;;8.90;99.90;;;;;;4985346;28;20283;-40
2021/10/11 04:20:55;;;;;;;10.20;8.82;;;9.00;99.90;;;;;;4981680;28;20204;-40
2021/10/11 04:23:26;;;;;;;11.70;9.80;;;9.00;99.90;;;;;;4986427;28;20209;-40
2021/10/11 04:25:57;;;;;;;11.48;9.20;;;8.90;99.90;;;;;;4989898;28;20192;-40
2021/10/11 04:28:28;;;;;;;11.70;9.70;;;8.90;99.90;;;;;;5000323;28;20228;-41
2021/10/11 04:30:59;;;;;;;15.25;11.05;;;8.90;99.90;;;;;;5002328;28;20230;-41
2021/10/11 04:33:31;;;;;;;11.23;10.02;;;9.00;99.90;;;;;;4966523;28;20224;-40
2021/10/11 04:36:02;;;;;;;12.50;10.57;;;9.10;99.90;;;;;;4974129;28;20220;-41
2021/10/11 04:38:34;;;;;;;14.57;10.95;;;9.10;99.90;;;;;;4997741;28;20292;-42
2021/10/11 04:41:05;;;;;;;13.93;10.40;;;9.10;99.90;;;;;;4995856;28;20256;-41
2021/10/11 04:43:36;;;;;;;12.25;11.15;;;9.10;99.90;;;;;;4995410;28;20262;-39
2021/10/11 04:46:07;;;;;;;14.98;12.27;;;9.20;99.90;;;;;;4990928;28;20239;-41
2021/10/11 04:48:39;;;;;;;12.57;11.23;;;9.20;99.90;;;;;;4995385;28;20310;-41
2021/10/11 04:51:10;;;;;;;13.75;11.05;;;9.30;99.90;;;;;;5000624;28;20243;-41
2021/10/11 04:53:42;;;;;;;13.05;11.00;;;9.20;99.90;;;;;;5007088;23;20297;-64
2021/10/11 04:56:13;;;;;;;17.42;12.02;;;9.20;99.90;;;;;;4987654;28;20210;-64
2021/10/11 04:58:44;;;;;;;11.90;10.77;;;9.30;99.90;;;;;;4987799;28;20226;-64
2021/10/11 05:01:16;;;;;;;12.98;11.48;;;9.40;99.90;;;;;;4988395;28;20287;-65
2021/10/11 05:03:49;;;;;;;11.32;10.20;;;9.40;99.90;;;;;;4991545;28;20219;-62
2021/10/11 05:06:19;;;;;;;11.25;10.15;;;9.30;99.90;;;;;;5001747;28;20207;-61
2021/10/11 05:08:50;;;;;;;12.68;11.00;;;9.30;99.90;;;;;;4981981;28;20207;-64
2021/10/11 05:11:21;;;;;;;13.45;10.73;;;9.30;99.90;;;;;;4991244;28;20227;-64
2021/10/11 05:13:51;;;;;;;11.07;9.90;;;9.30;99.90;;;;;;4989645;28;20607;-64
2021/10/11 05:16:22;;;;;;;12.70;10.38;;;9.40;99.90;;;;;;4990911;28;20650;-64
2021/10/11 05:18:55;;;;;;;14.13;12.73;;;9.40;99.90;;;;;;4989940;28;20589;-64
2021/10/11 05:21:25;;;;;;;14.68;13.10;;;9.50;99.90;;;;;;4990970;28;20204;-64
2021/10/11 05:23:56;;;;;;;14.65;11.75;;;9.50;99.90;;;;;;4986600;28;20219;-64
2021/10/11 05:26:27;;;;;;;12.57;11.38;;;9.50;99.90;;;;;;4991446;28;20345;-64
2021/10/11 05:28:58;;;;;;;12.20;10.88;;;9.50;99.90;;;;;;4990056;28;20286;-64
2021/10/11 05:31:29;;;;;;;14.50;10.90;;;9.50;99.90;;;;;;4990347;28;20231;-62
2021/10/11 05:34:01;;;;;;;14.18;12.75;;;9.40;99.90;;;;;;4990258;28;20212;-62
2021/10/11 05:36:33;;;;;;;15.02;12.50;;;9.30;99.90;;;;;;4989138;28;20228;-62
2021/10/11 05:39:05;;;;;;;12.27;10.70;;;9.30;99.90;;;;;;4989837;28;20212;-62
2021/10/11 05:41:35;;;;;;;11.35;9.93;;;9.30;99.90;;;;;;4990384;28;20204;-62
2021/10/11 05:44:07;;;;;;;10.35;8.55;;;9.20;99.90;;;;;;4990001;28;20208;-61
2021/10/11 05:46:39;;;;;;;9.90;8.90;;;9.20;99.90;;;;;;4991053;28;20218;-62
2021/10/11 05:49:14;;;;;;;10.23;9.07;;;9.20;99.90;;;;;;4987637;28;20661;-61
2021/10/11 05:51:45;;;;;;;10.50;9.00;;;9.30;99.90;;;;;;4988402;28;20286;-62
2021/10/11 05:54:16;;;;;;;11.95;9.15;;;9.20;99.90;;;;;;4985266;28;20231;-62
2021/10/11 05:56:47;;;;;;;10.40;9.32;;;9.20;99.90;;;;;;4976058;28;20212;-62
2021/10/11 05:59:18;;;;;;;9.60;8.55;;;9.20;99.90;;;;;;4989150;28;20227;-62
2021/10/11 06:01:48;;;;;;;10.43;9.43;;;9.10;99.90;;;;;;4989058;28;20241;-62
2021/10/11 06:04:21;;;;;;;11.55;9.20;;;9.10;99.90;;;;;;4971394;28;20299;-62
2021/10/11 06:06:52;;;;;;;12.65;8.00;;;9.10;99.90;;;;;;4983930;28;20212;-61
2021/10/11 06:09:22;;;;;;;11.82;9.65;;;9.10;99.90;;;;;;4978949;28;20224;-62
2021/10/11 06:11:53;;;;;;;9.65;8.65;;;8.90;99.90;;;;;;4990025;28;20246;-62
2021/10/11 06:14:24;;;;;;;10.90;9.55;;;8.90;99.90;;;;;;4985456;28;20218;-62
2021/10/11 06:16:55;;;;;;;13.88;9.80;;;8.80;99.90;;;;;;4983153;28;20275;-62
2021/10/11 06:19:27;;;;;;;12.60;8.98;;;8.70;99.90;;;;;;4984539;28;20670;-62
2021/10/11 06:21:58;;;;;;;10.65;9.55;;;8.60;99.90;;;;;;4976502;28;20224;-62
2021/10/11 06:24:29;;;;;;;10.80;9.70;;;8.60;99.90;;;;;;4984208;28;20231;-62
2021/10/11 06:27:02;;;;;;;11.10;9.25;;;8.50;99.90;;;;;;4987997;28;20215;-62
2021/10/11 06:29:33;;;;;;;14.50;10.48;;;8.50;99.90;;;;;;4981290;28;20781;-61
2021/10/11 06:32:05;;;;;;;12.90;10.93;;;8.40;99.90;;;;;;4984872;28;20224;-62
2021/10/11 06:34:37;;;;;;;12.07;9.30;;;8.40;99.90;;;;;;4975385;28;20212;-62
2021/10/11 06:37:09;;;;;;;11.77;9.77;;;8.30;99.90;;;;;;4985789;28;20226;-61
2021/10/11 06:39:39;;;;;;;14.05;10.82;;;8.30;99.90;;;;;;4988229;28;20230;-62
2021/10/11 06:42:10;;;;;;;16.48;11.70;;;8.20;99.90;;;;;;4977934;28;20215;-61
2021/10/11 06:44:41;;;;;;;13.88;11.55;;;8.20;99.90;;;;;;4987637;28;20285;-61
2021/10/11 06:47:12;;;;;;;13.90;10.50;;;8.20;99.90;;;;;;4984662;28;20235;-61
2021/10/11 06:49:46;;;;;;;12.02;10.77;;;8.10;99.90;;;;;;4988863;28;20218;-62
2021/10/11 06:52:17;;;;;;;16.75;10.90;;;8.10;99.90;;;;;;4979232;28;20616;-61
2021/10/11 06:54:47;;;;;;;14.15;11.15;;;8.00;99.90;;;;;;4987157;28;20227;-62
2021/10/11 06:57:18;;;;;;;14.45;10.55;;;7.90;99.90;;;;;;4989374;28;20212;-62
2021/10/11 06:59:49;;;;;;;9.95;8.40;;;7.80;99.90;;;;;;4982540;28;20684;-61
2021/10/11 07:02:20;;;;;;;9.50;8.50;;;7.80;99.90;;;;;;4978154;28;20638;-61
2021/10/11 07:04:57;;;;;;;10.23;8.25;;;7.80;99.90;;;;;;4978289;28;20634;-61
2021/10/11 07:07:29;;;;;;;15.38;8.40;;;7.80;99.90;;;;;;4979418;28;20208;-62
2021/10/11 07:10:00;;;;;;;9.05;7.82;;;7.80;99.90;;;;;;4979410;28;20215;-62
2021/10/11 07:12:30;;;;;;;8.55;6.95;;;7.70;99.90;;;;;;4977938;28;20599;-61
2021/10/11 07:15:21;;;;;;;7.82;7.03;;;7.70;99.90;;;;;;4986337;28;20247;-62
2021/10/11 07:17:52;;;;;;;13.85;7.05;;;7.60;99.90;;;;;;4977838;28;20217;-61
2021/10/11 07:20:25;;;;;;;7.10;5.95;;;7.60;99.90;;;;;;4980714;28;20218;-64
2021/10/11 07:22:56;;;;;;;8.35;6.00;;;7.50;99.90;;;;;;4990064;28;20306;-62
2021/10/11 07:25:27;;;;;;;7.95;6.68;;;7.50;99.90;;;;;;4989932;28;20212;-63
2021/10/11 07:27:59;;;;;;;9.80;7.03;;;7.40;99.90;;;;;;4987518;28;20219;-61
2021/10/11 07:30:30;;;;;;;9.68;6.65;;;7.40;99.90;;;;;;4983726;28;20367;-62
2021/10/11 07:33:01;;;;;;;8.40;5.80;;;7.40;99.90;;;;;;4992373;28;20227;-62
2021/10/11 07:35:33;;;;;;;7.68;6.32;;;7.40;99.90;;;;;;4981602;28;20216;-62
2021/10/11 07:38:06;;;;;;;6.38;4.97;;;7.40;99.90;;;;;;4984470;28;20294;-62
2021/10/11 07:40:50;;;;;;;5.97;4.95;;;7.30;99.90;;;;;;4986138;28;20349;-62
2021/10/11 07:43:21;;;;;;;6.60;5.50;;;7.20;99.90;;;;;;4984407;28;20234;-62
2021/10/11 07:45:52;;;;;;;8.98;5.97;;;7.30;99.90;;;;;;4978617;28;20234;-62
2021/10/11 07:48:23;;;;;;;7.00;6.28;;;7.20;99.90;;;;;;4991842;28;20593;-61
2021/10/11 07:50:55;;;;;;;8.30;6.63;;;7.10;99.90;;;;;;4982391;28;20555;-61
2021/10/11 07:53:26;;;;;;;9.25;6.43;;;7.10;99.90;;;;;;4985952;28;20636;-62
2021/10/11 07:55:57;;;;;;;8.90;6.90;;;7.10;99.90;;;;;;4991893;28;20231;-62
2021/10/11 07:58:28;;;;;;;6.95;6.22;;;6.90;99.90;;;;;;4981959;28;20282;-62
2021/10/11 08:00:59;;;;;;;7.20;4.85;;;7.00;99.90;;;;;;4979348;28;20212;-61
2021/10/11 08:03:30;;;;;;;5.90;4.85;;;6.90;99.90;;;;;;4991434;28;20329;-62
2021/10/11 08:06:03;;;;;;;6.50;4.30;;;6.90;99.90;;;;;;4985180;28;20220;-64
2021/10/11 08:08:35;;;;;;;6.78;5.15;;;6.80;99.90;;;;;;4982954;28;20207;-61
2021/10/11 08:11:06;;;;;;;5.03;4.53;;;6.80;99.90;;;;;;4989678;28;20283;-61
2021/10/11 08:13:36;;;;;;;4.85;4.20;;;6.80;99.90;;;;;;4983354;28;20326;-62
2021/10/11 08:16:09;;;;;;;5.13;4.30;;;6.80;99.90;;;;;;4988482;28;20218;-61
2021/10/11 08:18:39;;;;;;;5.68;3.90;;;6.80;99.90;;;;;;4983514;28;20282;-64
2021/10/11 08:21:12;;;;;;;4.65;4.25;;;6.80;99.90;;;;;;4991786;28;20237;-61
2021/10/11 08:23:43;;;;;;;5.00;3.40;;;6.80;99.90;;;;;;4968607;28;20224;-61
2021/10/11 08:26:13;;;;;;;6.63;4.20;;;6.70;99.90;;;;;;4980601;28;20215;-61
2021/10/11 08:28:44;;;;;;;5.82;3.85;;;6.70;99.90;;;;;;4990218;28;20216;-62
2021/10/11 08:31:15;;;;;;;4.40;3.80;;;6.60;99.90;;;;;;4979897;28;20212;-61
2021/10/11 08:33:46;;;;;;;6.20;4.20;;;6.60;99.90;;;;;;4985093;28;20269;-62
2021/10/11 08:36:18;;;;;;;4.20;3.47;;;6.60;99.90;;;;;;4992631;28;20216;-62
2021/10/11 08:38:49;;;;;;;5.05;4.45;;;6.50;99.90;;;;;;4984191;28;20224;-62
2021/10/11 08:41:20;;;;;;;6.25;4.07;;;6.50;99.90;;;;;;4988871;28;20353;-62
2021/10/11 08:43:51;;;;;;;4.55;3.72;;;6.40;99.90;;;;;;4978115;28;20576;-62
2021/10/11 08:46:23;;;;;;;4.63;3.40;;;6.40;99.90;;;;;;4981302;28;20242;-62
2021/10/11 08:48:54;;;;;;;5.30;3.30;;;6.30;99.90;;;;;;4977365;28;20752;-62
2021/10/11 08:51:26;;;;;;;3.90;3.45;;;6.20;99.90;;;;;;4981861;28;20216;-62
2021/10/11 08:53:57;;;;;;;4.35;3.05;;;6.20;99.90;;;;;;4986226;28;20239;-62
2021/10/11 08:56:28;;;;;;;5.50;3.10;;;6.30;99.90;;;;;;4982100;28;20226;-66
2021/10/11 08:58:59;;;;;;;3.50;3.20;;;6.30;99.90;;;;;;4988521;28;20219;-64
2021/10/11 09:01:29;;;;;;;3.72;3.38;;;6.30;99.90;;;;;;4982278;28;20589;-64
2021/10/11 09:04:04;;;;;;;5.25;3.50;;;6.20;99.90;;;;;;4990484;28;20203;-65
2021/10/11 09:06:36;;;;;;;3.42;3.20;;;6.30;99.90;;;;;;4980275;28;20689;-65
2021/10/11 09:09:12;;;;;;;4.55;2.90;;;6.20;99.90;;;;;;4982566;28;20212;-62
2021/10/11 09:11:42;;;;;;;3.97;3.55;;;6.20;99.90;;;;;;4990075;28;20207;-62
2021/10/11 09:14:22;;;;;;;4.15;3.40;;;6.10;99.90;;;;;;4979212;28;20234;-62
2021/10/11 09:17:00;;;;;;;6.15;3.28;;;6.00;99.90;;;;;;4991476;28;20216;-62
2021/10/11 09:19:35;;;;;;;3.78;3.38;;;6.00;99.90;;;;;;4979254;28;20208;-62
2021/10/11 09:22:08;;;;;;;5.68;3.47;;;5.90;99.90;;;;;;4986915;28;20223;-63
2021/10/11 09:24:39;;;;;;;5.90;3.53;;;5.90;99.90;;;;;;4986205;28;20303;-62
2021/10/11 09:27:09;;;;;;;3.10;2.90;;;5.90;99.90;;;;;;4985043;28;20250;-62
2021/10/11 09:29:41;;;;;;;3.00;2.80;;;5.90;99.90;;;;;;4989711;28;20212;-62
2021/10/11 09:32:13;;;;;;;4.05;3.05;;;5.90;99.90;;;;;;4985286;28;20333;-62
2021/10/11 09:34:44;;;;;;;3.15;2.85;;;5.90;99.90;;;;;;4990075;28;20567;-62
2021/10/11 09:37:17;;;;;;;4.25;3.50;;;5.90;99.90;;;;;;4979578;28;20701;-62
2021/10/11 09:39:48;;;;;;;3.35;3.05;;;6.00;99.90;;;;;;4984235;28;20220;-62
2021/10/11 09:42:21;;;;;;;4.40;3.28;;;5.80;99.90;;;;;;4990383;28;20219;-62
2021/10/11 09:44:55;;;;;;;3.63;3.33;;;5.80;99.90;;;;;;4989774;28;20672;-62
2021/10/11 09:47:30;;;;;;;3.22;2.92;;;5.70;99.90;;;;;;4980409;28;20237;-62
2021/10/11 09:50:03;;;;;;;3.03;2.65;;;5.70;99.90;;;;;;4975937;28;20211;-63
2021/10/11 09:52:37;;;;;;;4.00;3.53;;;5.60;99.90;;;;;;4979290;28;20666;-63
2021/10/11 09:55:09;;;;;;;3.22;2.85;;;5.70;99.90;;;;;;4985361;28;20263;-62
2021/10/11 09:57:40;;;;;;;3.88;2.90;;;5.60;99.90;;;;;;4978189;28;20221;-62
2021/10/11 10:00:12;;;;;;;3.60;2.85;;;5.60;99.90;;;;;;4978886;28;20204;-62
2021/10/11 10:02:45;;;;;;;4.38;3.22;;;5.60;99.90;;;;;;4989717;28;20208;-62
2021/10/11 10:05:20;;;;;;;3.85;2.75;;;5.50;99.90;;;;;;4989931;28;20866;-62
2021/10/11 10:07:56;;;;;;;3.40;3.10;;;5.50;99.90;;;;;;4987189;28;20233;-62
2021/10/11 10:10:29;;;;;;;4.97;3.08;;;5.50;99.90;;;;;;4981326;28;20220;-62
2021/10/11 10:13:00;;;;;;;3.30;2.92;;;5.50;99.90;;;;;;4989613;28;20302;-62
2021/10/11 10:15:32;;;;;;;2.95;2.75;;;5.50;99.90;;;;;;4980507;28;20595;-62
2021/10/11 10:18:05;;;;;;;3.92;2.80;;;5.50;99.90;;;;;;4980853;28;20608;-63
2021/10/11 10:20:37;;;;;;;3.58;2.53;;;5.50;99.90;;;;;;4982486;28;20227;-63
2021/10/11 10:23:10;;;;;;;4.82;3.08;;;5.60;99.90;;;;;;4987665;28;20226;-62
2021/10/11 10:25:47;;;;;;;4.88;3.28;;;5.60;99.90;;;;;;4990159;28;20232;-63
2021/10/11 10:28:18;;;;;;;3.65;2.90;;;5.50;99.90;;;;;;4980136;28;20216;-62
2021/10/11 10:31:00;;;;;;;3.70;3.40;;;5.50;99.90;;;;;;4982945;28;20211;-62
2021/10/11 10:33:38;;;;;;;4.07;2.55;;;5.50;99.90;;;;;;4976770;28;20227;-62
2021/10/11 10:36:21;;;;;;;3.10;2.78;;;5.40;99.90;;;;;;4977578;28;20230;-62
2021/10/11 10:39:01;;;;;;;3.95;3.60;;;5.50;99.90;;;;;;4987347;28;20216;-62
2021/10/11 10:41:33;;;;;;;3.00;2.70;;;5.50;99.90;;;;;;4988939;28;20243;-62
2021/10/11 10:44:14;;;;;;;3.75;2.90;;;5.40;99.90;;;;;;4984551;28;20234;-62
2021/10/11 10:46:53;;;;;;;3.88;3.00;;;5.40;99.90;;;;;;4977805;28;20219;-62
2021/10/11 10:49:32;;;;;;;4.47;3.55;;;5.40;99.90;;;;;;4973233;28;20572;-62
2021/10/11 10:52:09;;;;;;;4.00;3.30;;;5.30;99.90;;;;;;4984519;28;20547;-62
2021/10/11 10:54:44;;;;;;;8.43;3.55;;;5.30;99.90;;;;;;4982974;28;20262;-62
2021/10/11 10:57:21;;;;;;;3.72;3.00;;;5.30;99.90;;;;;;4979493;28;20220;-65
2021/10/11 10:59:53;;;;;;;5.47;2.92;;;5.20;99.90;;;;;;4981109;28;20226;-62
2021/10/11 11:02:31;;;;;;;4.80;3.63;;;5.20;99.90;;;;;;4988599;28;20573;-62
2021/10/11 11:05:06;;;;;;;4.15;3.75;;;5.20;99.90;;;;;;4977143;28;20238;-62
2021/10/11 11:07:39;;;;;;;4.50;3.67;;;5.10;99.90;;;;;;4987248;28;20734;-62
2021/10/11 11:10:16;;;;;;;3.45;3.15;;;5.10;99.90;;;;;;4988478;28;20223;-62
2021/10/11 11:12:51;;;;;;;4.45;3.25;;;5.10;99.90;;;;;;4972747;28;20212;-62
2021/10/11 11:15:28;;;;;;;5.35;3.70;;;5.10;99.90;;;;;;4984581;28;20227;-62
2021/10/11 11:18:00;;;;;;;3.97;3.13;;;5.10;99.90;;;;;;4989143;28;20226;-62
2021/10/11 11:20:33;;;;;;;4.72;4.00;;;5.00;99.90;;;;;;4988944;28;20212;-62
2021/10/11 11:23:06;;;;;;;4.55;3.33;;;5.00;99.90;;;;;;4972670;28;20219;-63
2021/10/11 11:25:40;;;;;;;4.95;3.53;;;5.00;99.90;;;;;;4984675;28;20214;-62
2021/10/11 11:28:12;;;;;;;3.92;3.45;;;5.00;99.90;;;;;;4977351;28;20208;-62
2021/10/11 11:30:44;;;;;;;4.95;3.65;;;5.00;99.90;;;;;;4989454;28;20215;-61
2021/10/11 11:33:16;;;;;;;6.35;4.20;;;5.10;99.90;;;;;;4979735;28;20215;-62
2021/10/11 11:35:49;;;;;;;4.95;3.22;;;5.00;99.90;;;;;;4976332;28;20235;-63
2021/10/11 11:38:22;;;;;;;3.70;3.33;;;5.00;99.90;;;;;;4976947;28;20228;-61
2021/10/11 11:40:56;;;;;;;4.18;3.40;;;5.00;99.90;;;;;;4980503;28;20266;-62
2021/10/11 11:43:29;;;;;;;5.63;4.25;;;4.90;99.90;;;;;;4979362;28;20558;-62
2021/10/11 11:46:02;;;;;;;5.18;4.63;;;4.80;99.90;;;;;;4984345;28;20298;-62
2021/10/11 11:48:34;;;;;;;4.03;3.60;;;4.80;99.90;;;;;;4981594;28;20220;-61
2021/10/11 11:51:07;;;;;;;6.65;4.50;;;4.80;99.90;;;;;;4988829;28;20216;-62
2021/10/11 11:53:39;;;;;;;6.80;4.07;;;4.70;99.90;;;;;;4982324;28;20216;-64
2021/10/11 11:56:13;;;;;;;6.70;4.38;;;4.80;99.90;;;;;;4969846;28;20729;-62
2021/10/11 11:58:51;;;;;;;4.57;4.10;;;4.70;99.90;;;;;;4969488;28;20247;-62
2021/10/11 12:01:27;;;;;;;8.48;4.55;;;4.70;99.90;;;;;;4960326;28;20216;-62
2021/10/11 12:04:02;;;;;;;4.45;4.07;;;4.70;99.90;;;;;;4961058;28;20228;-61
2021/10/11 12:06:35;;;;;;;4.65;3.70;;;4.70;99.90;;;;;;4959282;28;20291;-62
2021/10/11 12:09:06;;;;;;;5.95;4.47;;;4.80;99.90;;;;;;4964514;28;20586;-61
2021/10/11 12:11:39;;;;;;;6.30;4.18;;;4.80;99.90;;;;;;4964207;28;20220;-62
2021/10/11 12:14:10;;;;;;;4.13;3.70;;;4.70;99.90;;;;;;4961379;28;20553;-62
2021/10/11 12:16:41;;;;;;;4.07;3.78;;;4.60;99.90;;;;;;4973150;28;20228;-61
2021/10/11 12:19:11;;;;;;;5.05;3.55;;;4.70;99.90;;;;;;4972054;28;20220;-62
2021/10/11 12:21:43;;;;;;;4.85;4.00;;;4.70;99.90;;;;;;4971160;28;20745;-63
2021/10/11 12:24:19;;;;;;;6.35;4.57;;;4.60;99.90;;;;;;4964261;28;20717;-63
2021/10/11 12:26:54;;;;;;;4.45;4.05;;;4.60;99.90;;;;;;4973524;28;20561;-62
2021/10/11 12:29:27;;;;;;;4.07;3.65;;;4.60;99.90;;;;;;4962400;28;20212;-62
2021/10/11 12:32:00;;;;;;;4.60;3.90;;;4.70;99.90;;;;;;4973031;28;20231;-63
2021/10/11 12:34:34;;;;;;;5.10;4.05;;;4.70;99.90;;;;;;4968121;28;20240;-62
2021/10/11 12:37:09;;;;;;;6.15;4.65;;;4.60;99.90;;;;;;4970267;28;20219;-62
2021/10/11 12:39:40;;;;;;;5.72;4.47;;;4.60;99.90;;;;;;4972491;28;20219;-63
2021/10/11 12:42:17;;;;;;;7.47;4.53;;;4.50;99.90;;;;;;4960955;28;20209;-64
2021/10/11 12:44:54;;;;;;;4.68;4.18;;;4.60;99.90;;;;;;4972573;28;20212;-62
2021/10/11 12:47:27;;;;;;;4.32;3.92;;;4.60;99.90;;;;;;4962214;28;20216;-62
2021/10/11 12:50:00;;;;;;;5.05;4.47;;;4.50;99.90;;;;;;4965495;28;20219;-62
2021/10/11 12:52:34;;;;;;;4.80;4.10;;;4.50;99.90;;;;;;4960783;28;20216;-63
2021/10/11 12:55:11;;;;;;;5.55;3.92;;;4.50;99.90;;;;;;4981734;28;20331;-64
2021/10/11 12:57:45;;;;;;;5.03;4.07;;;4.40;99.90;;;;;;4983083;28;20540;-62
2021/10/11 13:00:18;;;;;;;5.65;4.70;;;4.40;99.90;;;;;;4980952;28;20582;-63
2021/10/11 13:02:49;;;;;;;5.57;4.55;;;4.30;99.90;;;;;;4988806;28;20236;-62
2021/10/11 13:05:20;;;;;;;6.20;4.28;;;4.40;99.90;;;;;;4988981;28;20312;-62
2021/10/11 13:07:51;;;;;;;4.88;4.38;;;4.30;99.90;;;;;;4991246;28;20212;-63
2021/10/11 13:10:22;;;;;;;6.50;3.75;;;4.30;99.90;;;;;;4979611;28;20216;-63
2021/10/11 13:12:55;;;;;;;5.20;4.28;;;4.20;99.90;;;;;;4984368;28;20254;-63
2021/10/11 13:15:26;;;;;;;5.38;3.83;;;4.20;99.90;;;;;;4982020;28;20228;-62
2021/10/11 13:17:57;;;;;;;6.95;4.55;;;4.20;99.90;;;;;;4981747;28;20208;-62
2021/10/11 13:20:29;;;;;;;4.68;3.80;;;4.30;99.90;;;;;;4989879;28;20216;-62
2021/10/11 13:23:00;;;;;;;6.90;4.07;;;4.20;99.90;;;;;;4985185;28;20299;-62
2021/10/11 13:25:31;;;;;;;6.40;4.97;;;4.20;99.90;;;;;;4980066;28;20208;-62
2021/10/11 13:28:04;;;;;;;8.98;4.32;;;4.20;99.90;;;;;;4981544;28;20227;-64
2021/10/11 13:37:05;;;;;;;5.13;4.60;;;4.30;99.90;;;;;;4955420;28;20744;-64
2021/10/11 14:29:59;;;;;;;7.00;5.97;;;5.80;99.90;;;;;;4975283;28;20211;-63
2021/10/11 15:59:38;;;;;;;10.63;5.75;;;8.40;99.90;;;;;;4983865;28;20752;-65
2021/10/11 16:02:28;;;;;;;5.93;5.13;;;8.70;99.90;;;;;;4988512;28;20276;-63
2021/10/11 16:05:00;;;;;;;6.03;5.43;;;9.10;99.90;;;;;;4989432;28;20337;-64
2021/10/11 16:07:31;;;;;;;34.35;11.23;;;9.50;99.90;;;;;;4986321;28;20729;-68
2021/10/11 16:10:02;;;;;;;5.10;4.00;;;9.80;99.90;;;;;;4989847;28;20208;-66
2021/10/11 16:12:33;;;;;;;5.27;3.97;;;10.30;99.90;;;;;;4983776;28;20809;-63
2021/10/11 16:15:05;;;;;;;7.63;4.43;;;10.90;99.90;;;;;;4981191;28;20779;-63
2021/10/11 16:17:57;;;;;;;6.57;4.03;;;11.30;99.90;;;;;;4985785;28;21026;-63
2021/10/11 16:20:28;;;;;;;5.07;4.57;;;12.00;99.90;;;;;;4979993;28;20458;-62
2021/10/11 16:22:59;;;;;;;6.70;4.73;;;12.40;99.90;;;;;;4989842;28;20469;-63
2021/10/11 16:25:29;;;;;;;4.40;4.00;;;12.60;99.90;;;;;;4983084;28;20474;-63
2021/10/11 16:28:00;;;;;;;5.10;4.57;;;12.50;99.90;;;;;;4988021;28;20454;-63
2021/10/11 16:30:33;;;;;;;5.53;4.60;;;12.50;99.90;;;;;;4978230;28;20466;-63
2021/10/11 16:33:04;;;;;;;5.57;5.03;;;12.30;99.90;;;;;;4980421;28;20830;-63
2021/10/11 16:35:35;;;;;;;5.00;4.50;;;12.00;99.90;;;;;;4978535;28;21268;-63
2021/10/11 16:38:06;;;;;;;5.20;4.00;;;11.70;99.90;;;;;;4984302;28;20521;-63
2021/10/11 16:40:39;;;;;;;6.30;4.43;;;11.60;99.90;;;;;;4973764;28;20477;-63
2021/10/11 16:43:10;;;;;;;4.27;3.60;;;11.70;99.90;;;;;;4986826;28;20451;-62
2021/10/11 16:45:43;;;;;;;4.43;3.87;;;12.50;99.90;;;;;;4989020;28;20962;-64
2021/10/11 16:48:13;;;;;;;7.10;4.07;;;14.30;99.90;;;;;;4976756;28;20813;-65
2021/10/11 16:50:44;;;;;;;4.30;3.60;;;16.80;99.90;;;;;;4986796;28;20462;-62
2021/10/11 16:53:15;;;;;;;5.40;3.80;;;18.60;98.50;;;;;;4988473;28;20478;-63
2021/10/11 16:55:46;;;;;;;5.60;3.40;;;18.00;97.90;;;;;;4988039;28;20456;-63
2021/10/11 16:58:16;;;;;;;5.10;3.43;;;19.20;96.20;;;;;;4990415;28;20458;-63
2021/10/11 17:00:49;;;;;;;3.73;3.03;;;19.60;95.90;;;;;;4990303;28;20791;-64
2021/10/11 17:03:21;;;;;;;4.13;2.87;;;20.90;92.10;;;;;;4987883;28;20490;-64
2021/10/11 17:05:52;;;;;;;3.80;2.70;;;22.00;88.90;;;;;;4995706;28;20462;-63
2021/10/11 17:08:23;;;;;;;3.27;2.60;;;21.00;90.40;;;;;;4987024;28;20451;-63
2021/10/11 17:10:54;;;;;;;3.90;3.23;;;19.80;91.10;;;;;;4988931;28;20455;-66
2021/10/11 17:13:24;;;;;;;2.80;2.53;;;19.00;92.10;;;;;;4997640;28;20481;-63
2021/10/11 17:15:57;;;;;;;3.40;2.60;;;18.20;93.50;;;;;;4991585;28;20759;-62
2021/10/11 17:18:48;;;;;;;3.40;2.30;;;17.90;95.20;;;;;;4987556;28;20483;-63
2021/10/11 17:21:18;;;;;;;3.70;2.10;;;19.40;94.30;;;;;;4990179;28;20927;-63
2021/10/11 17:23:49;;;;;;;2.93;2.63;;;19.40;92.90;;;;;;4988094;28;20491;-62
2021/10/11 17:26:20;;;;;;;2.73;2.17;;;18.70;93.30;;;;;;4990522;28;20859;-62
2021/10/11 17:28:51;;;;;;;5.93;2.53;;;18.10;94.30;;;;;;4990456;28;20796;-63
2021/10/11 17:31:30;;;;;;;3.30;2.60;;;17.00;98.00;;;;;;4977955;28;20446;-62
2021/10/11 17:34:01;;;;;;;5.30;2.60;;;16.70;97.20;;;;;;4984087;28;20495;-63
2021/10/11 17:36:33;;;;;;;4.07;2.40;;;16.80;95.80;;;;;;4993346;28;20460;-64
2021/10/11 17:39:07;;;;;;;4.20;3.80;;;17.10;95.70;;;;;;4988822;28;20479;-64